sensor_id;sensor_type;location;lat;lon;timestamp;pressure;altitude;pressure_sealevel;temperature;humidity
61035;BME280;46916;40.564;-7.958;2022-07-29T00:01:39;97397.00;;;21.32;60.88
61035;BME280;46916;40.564;-7.958;2022-07-29T00:03:40;97392.09;;;21.36;60.90
61035;BME280;46916;40.564;-7.958;2022-07-29T00:05:41;97386.97;;;21.34;60.70
61035;BME280;46916;40.564;-7.958;2022-07-29T00:07:42;97393.09;;;21.35;61.03
61035;BME280;46916;40.564;-7.958;2022-07-29T00:09:42;97394.50;;;21.31;61.27
61035;BME280;46916;40.564;-7.958;2022-07-29T00:11:43;97385.88;;;21.28;61.05
61035;BME280;46916;40.564;-7.958;2022-07-29T00:13:44;97388.13;;;21.25;60.94
61035;BME280;46916;40.564;-7.958;2022-07-29T00:15:44;97390.19;;;21.23;61.06
61035;BME280;46916;40.564;-7.958;2022-07-29T00:17:45;97379.50;;;21.16;61.67
61035;BME280;46916;40.564;-7.958;2022-07-29T00:19:46;97369.59;;;21.10;61.81
61035;BME280;46916;40.564;-7.958;2022-07-29T00:21:47;97369.81;;;21.09;61.51
61035;BME280;46916;40.564;-7.958;2022-07-29T00:23:47;97372.69;;;21.07;61.92
61035;BME280;46916;40.564;-7.958;2022-07-29T00:25:48;97365.69;;;21.06;62.09
61035;BME280;46916;40.564;-7.958;2022-07-29T00:27:49;97366.13;;;21.03;61.87
61035;BME280;46916;40.564;-7.958;2022-07-29T00:29:49;97355.22;;;20.98;62.43
61035;BME280;46916;40.564;-7.958;2022-07-29T00:31:50;97366.72;;;20.98;62.29
61035;BME280;46916;40.564;-7.958;2022-07-29T00:33:51;97356.84;;;20.92;62.10
61035;BME280;46916;40.564;-7.958;2022-07-29T00:35:51;97354.16;;;20.92;62.27
61035;BME280;46916;40.564;-7.958;2022-07-29T00:37:52;97355.78;;;20.87;62.65
61035;BME280;46916;40.564;-7.958;2022-07-29T00:39:53;97352.25;;;20.80;62.85
61035;BME280;46916;40.564;-7.958;2022-07-29T00:41:53;97358.78;;;20.77;62.55
61035;BME280;46916;40.564;-7.958;2022-07-29T00:43:54;97348.97;;;20.77;62.75
61035;BME280;46916;40.564;-7.958;2022-07-29T00:45:54;97361.72;;;20.82;62.61
61035;BME280;46916;40.564;-7.958;2022-07-29T00:47:55;97357.63;;;20.86;62.35
61035;BME280;46916;40.564;-7.958;2022-07-29T00:49:56;97352.91;;;20.88;62.53
61035;BME280;46916;40.564;-7.958;2022-07-29T00:51:57;97350.03;;;20.83;62.43
61035;BME280;46916;40.564;-7.958;2022-07-29T00:53:58;97344.88;;;20.75;62.80
61035;BME280;46916;40.564;-7.958;2022-07-29T00:55:59;97351.78;;;20.69;62.96
61035;BME280;46916;40.564;-7.958;2022-07-29T00:57:59;97344.22;;;20.66;63.09
61035;BME280;46916;40.564;-7.958;2022-07-29T01:00:00;97337.81;;;20.61;63.30
61035;BME280;46916;40.564;-7.958;2022-07-29T01:02:02;97330.25;;;20.58;63.43
61035;BME280;46916;40.564;-7.958;2022-07-29T01:04:03;97336.13;;;20.53;63.63
61035;BME280;46916;40.564;-7.958;2022-07-29T01:06:06;97347.63;;;20.53;63.56
61035;BME280;46916;40.564;-7.958;2022-07-29T01:08:07;97340.38;;;20.47;63.79
61035;BME280;46916;40.564;-7.958;2022-07-29T01:10:09;97337.53;;;20.49;63.83
61035;BME280;46916;40.564;-7.958;2022-07-29T01:12:12;97339.81;;;20.52;63.58
61035;BME280;46916;40.564;-7.958;2022-07-29T01:14:14;97335.50;;;20.51;63.72
61035;BME280;46916;40.564;-7.958;2022-07-29T01:16:30;97345.94;;;20.52;63.51
61035;BME280;46916;40.564;-7.958;2022-07-29T01:18:39;97348.16;;;20.49;63.94
61035;BME280;46916;40.564;-7.958;2022-07-29T01:30:38;97345.22;;;20.65;62.97
61035;BME280;46916;40.564;-7.958;2022-07-29T01:32:40;97338.06;;;20.66;63.22
61035;BME280;46916;40.564;-7.958;2022-07-29T01:35:21;97338.63;;;20.61;63.45
61035;BME280;46916;40.564;-7.958;2022-07-29T01:37:31;97333.28;;;20.55;63.53
61035;BME280;46916;40.564;-7.958;2022-07-29T01:39:35;97330.63;;;20.55;63.74
61035;BME280;46916;40.564;-7.958;2022-07-29T01:41:40;97333.72;;;20.58;63.63
61035;BME280;46916;40.564;-7.958;2022-07-29T01:43:50;97326.94;;;20.56;63.43
61035;BME280;46916;40.564;-7.958;2022-07-29T01:46:13;97330.41;;;20.56;63.25
61035;BME280;46916;40.564;-7.958;2022-07-29T01:48:19;97332.25;;;20.56;63.46
61035;BME280;46916;40.564;-7.958;2022-07-29T01:50:28;97326.34;;;20.53;63.67
61035;BME280;46916;40.564;-7.958;2022-07-29T01:52:35;97332.47;;;20.54;63.74
61035;BME280;46916;40.564;-7.958;2022-07-29T01:54:43;97329.59;;;20.56;63.34
61035;BME280;46916;40.564;-7.958;2022-07-29T01:56:49;97329.38;;;20.50;63.79
61035;BME280;46916;40.564;-7.958;2022-07-29T01:58:52;97332.84;;;20.51;63.59
61035;BME280;46916;40.564;-7.958;2022-07-29T02:00:56;97326.50;;;20.52;63.77
61035;BME280;46916;40.564;-7.958;2022-07-29T02:02:59;97330.41;;;20.49;63.62
61035;BME280;46916;40.564;-7.958;2022-07-29T02:05:04;97338.38;;;20.49;63.64
61035;BME280;46916;40.564;-7.958;2022-07-29T02:07:10;97330.75;;;20.46;63.76
61035;BME280;46916;40.564;-7.958;2022-07-29T02:09:14;97330.31;;;20.43;63.92
61035;BME280;46916;40.564;-7.958;2022-07-29T02:11:16;97331.13;;;20.43;63.91
61035;BME280;46916;40.564;-7.958;2022-07-29T02:13:17;97329.28;;;20.44;63.74
61035;BME280;46916;40.564;-7.958;2022-07-29T02:15:18;97336.06;;;20.46;63.88
61035;BME280;46916;40.564;-7.958;2022-07-29T02:17:45;97329.38;;;20.50;63.64
61035;BME280;46916;40.564;-7.958;2022-07-29T02:19:49;97323.03;;;20.51;63.78
61035;BME280;46916;40.564;-7.958;2022-07-29T02:21:52;97326.34;;;20.53;63.76
61035;BME280;46916;40.564;-7.958;2022-07-29T02:23:56;97328.34;;;20.51;63.83
61035;BME280;46916;40.564;-7.958;2022-07-29T02:25:59;97328.09;;;20.46;63.80
61035;BME280;46916;40.564;-7.958;2022-07-29T02:28:00;97330.53;;;20.41;64.12
61035;BME280;46916;40.564;-7.958;2022-07-29T02:30:03;97332.53;;;20.39;63.99
61035;BME280;46916;40.564;-7.958;2022-07-29T02:32:05;97335.00;;;20.41;63.79
61035;BME280;46916;40.564;-7.958;2022-07-29T02:34:08;97327.38;;;20.31;64.47
61035;BME280;46916;40.564;-7.958;2022-07-29T02:36:09;97329.16;;;20.24;64.49
61035;BME280;46916;40.564;-7.958;2022-07-29T02:38:13;97332.75;;;20.16;64.77
61035;BME280;46916;40.564;-7.958;2022-07-29T02:40:34;97332.72;;;20.10;65.32
61035;BME280;46916;40.564;-7.958;2022-07-29T02:42:41;97332.28;;;20.06;65.27
61035;BME280;46916;40.564;-7.958;2022-07-29T02:44:43;97328.44;;;20.09;65.47
61035;BME280;46916;40.564;-7.958;2022-07-29T02:51:25;97332.81;;;20.23;64.86
61035;BME280;46916;40.564;-7.958;2022-07-29T02:53:29;97330.59;;;20.26;64.64
61035;BME280;46916;40.564;-7.958;2022-07-29T02:55:41;97338.34;;;20.21;64.91
61035;BME280;46916;40.564;-7.958;2022-07-29T02:57:53;97329.72;;;20.19;64.96
61035;BME280;46916;40.564;-7.958;2022-07-29T02:59:58;97329.13;;;20.17;65.15
61035;BME280;46916;40.564;-7.958;2022-07-29T03:01:59;97331.81;;;20.24;64.81
61035;BME280;46916;40.564;-7.958;2022-07-29T03:04:03;97329.78;;;20.26;64.70
61035;BME280;46916;40.564;-7.958;2022-07-29T03:06:05;97324.84;;;20.23;64.79
61035;BME280;46916;40.564;-7.958;2022-07-29T03:08:09;97330.38;;;20.21;64.96
61035;BME280;46916;40.564;-7.958;2022-07-29T03:10:11;97324.66;;;20.24;64.61
61035;BME280;46916;40.564;-7.958;2022-07-29T03:12:13;97325.09;;;20.28;64.51
61035;BME280;46916;40.564;-7.958;2022-07-29T03:14:16;97323.66;;;20.25;64.79
61035;BME280;46916;40.564;-7.958;2022-07-29T03:16:19;97326.47;;;20.24;64.75
61035;BME280;46916;40.564;-7.958;2022-07-29T03:18:20;97322.41;;;20.28;64.51
61035;BME280;46916;40.564;-7.958;2022-07-29T03:20:21;97326.47;;;20.24;64.86
61035;BME280;46916;40.564;-7.958;2022-07-29T03:22:22;97324.84;;;20.23;64.90
61035;BME280;46916;40.564;-7.958;2022-07-29T03:24:33;97319.97;;;20.26;64.76
61035;BME280;46916;40.564;-7.958;2022-07-29T03:26:34;97326.75;;;20.29;64.63
61035;BME280;46916;40.564;-7.958;2022-07-29T03:28:35;97326.31;;;20.25;64.74
61035;BME280;46916;40.564;-7.958;2022-07-29T03:30:36;97319.47;;;20.16;65.25
61035;BME280;46916;40.564;-7.958;2022-07-29T03:32:37;97320.69;;;20.14;65.00
61035;BME280;46916;40.564;-7.958;2022-07-29T03:34:38;97319.44;;;20.10;65.42
61035;BME280;46916;40.564;-7.958;2022-07-29T03:36:38;97320.63;;;20.07;65.37
61035;BME280;46916;40.564;-7.958;2022-07-29T03:38:40;97328.00;;;20.05;65.44
61035;BME280;46916;40.564;-7.958;2022-07-29T03:40:59;97322.69;;;20.05;65.35
61035;BME280;46916;40.564;-7.958;2022-07-29T03:43:02;97322.91;;;20.10;65.28
61035;BME280;46916;40.564;-7.958;2022-07-29T03:45:07;97324.41;;;20.19;64.97
61035;BME280;46916;40.564;-7.958;2022-07-29T03:47:09;97325.50;;;20.25;64.79
61035;BME280;46916;40.564;-7.958;2022-07-29T03:49:11;97318.13;;;20.27;64.63
61035;BME280;46916;40.564;-7.958;2022-07-29T03:51:15;97329.00;;;20.32;64.34
61035;BME280;46916;40.564;-7.958;2022-07-29T03:53:15;97327.38;;;20.31;64.37
61035;BME280;46916;40.564;-7.958;2022-07-29T03:55:17;97322.03;;;20.31;64.54
61035;BME280;46916;40.564;-7.958;2022-07-29T03:57:18;97322.69;;;20.33;64.60
61035;BME280;46916;40.564;-7.958;2022-07-29T03:59:20;97322.88;;;20.32;64.38
61035;BME280;46916;40.564;-7.958;2022-07-29T04:01:23;97322.03;;;20.31;64.46
61035;BME280;46916;40.564;-7.958;2022-07-29T04:03:25;97329.41;;;20.29;64.36
61035;BME280;46916;40.564;-7.958;2022-07-29T04:05:25;97320.31;;;20.17;64.67
61035;BME280;46916;40.564;-7.958;2022-07-29T04:07:26;97314.34;;;20.15;64.96
61035;BME280;46916;40.564;-7.958;2022-07-29T04:09:27;97326.44;;;20.17;64.90
61035;BME280;46916;40.564;-7.958;2022-07-29T04:11:27;97325.81;;;20.15;64.88
61035;BME280;46916;40.564;-7.958;2022-07-29T04:13:28;97330.88;;;20.10;65.03
61035;BME280;46916;40.564;-7.958;2022-07-29T04:15:29;97327.84;;;20.13;65.35
61035;BME280;46916;40.564;-7.958;2022-07-29T04:17:30;97325.81;;;20.15;64.83
61035;BME280;46916;40.564;-7.958;2022-07-29T04:19:31;97331.94;;;20.16;64.80
61035;BME280;46916;40.564;-7.958;2022-07-29T04:21:39;97335.19;;;20.11;64.95
61035;BME280;46916;40.564;-7.958;2022-07-29T04:23:40;97330.69;;;20.12;65.00
61035;BME280;46916;40.564;-7.958;2022-07-29T04:25:42;97334.59;;;20.16;65.02
61035;BME280;46916;40.564;-7.958;2022-07-29T04:27:43;97330.53;;;20.20;64.96
61035;BME280;46916;40.564;-7.958;2022-07-29T04:30:00;97334.44;;;20.17;64.94
61035;BME280;46916;40.564;-7.958;2022-07-29T04:32:01;97330.50;;;20.13;65.26
61035;BME280;46916;40.564;-7.958;2022-07-29T04:34:02;97329.69;;;20.13;65.22
61035;BME280;46916;40.564;-7.958;2022-07-29T04:36:03;97333.53;;;20.10;65.16
61035;BME280;46916;40.564;-7.958;2022-07-29T04:38:05;97325.38;;;20.12;65.17
61035;BME280;46916;40.564;-7.958;2022-07-29T04:40:06;97324.56;;;20.11;64.99
61035;BME280;46916;40.564;-7.958;2022-07-29T04:42:07;97331.25;;;20.07;65.13
61035;BME280;46916;40.564;-7.958;2022-07-29T04:44:08;97329.25;;;20.09;65.33
61035;BME280;46916;40.564;-7.958;2022-07-29T04:46:09;97336.00;;;20.12;65.27
61035;BME280;46916;40.564;-7.958;2022-07-29T04:48:09;97341.31;;;20.12;65.13
61035;BME280;46916;40.564;-7.958;2022-07-29T04:50:10;97339.88;;;20.09;65.22
61035;BME280;46916;40.564;-7.958;2022-07-29T04:52:11;97340.88;;;20.08;65.42
61035;BME280;46916;40.564;-7.958;2022-07-29T04:54:11;97337.22;;;20.09;65.18
61035;BME280;46916;40.564;-7.958;2022-07-29T04:56:12;97341.31;;;20.12;65.08
61035;BME280;46916;40.564;-7.958;2022-07-29T04:58:13;97339.88;;;20.09;65.07
61035;BME280;46916;40.564;-7.958;2022-07-29T05:00:14;97343.97;;;20.12;65.04
61035;BME280;46916;40.564;-7.958;2022-07-29T05:02:14;97336.66;;;20.14;64.82
61035;BME280;46916;40.564;-7.958;2022-07-29T05:04:15;97344.41;;;20.15;65.09
61035;BME280;46916;40.564;-7.958;2022-07-29T05:06:16;97343.59;;;20.15;64.94
61035;BME280;46916;40.564;-7.958;2022-07-29T05:08:16;97340.31;;;20.13;64.83
61035;BME280;46916;40.564;-7.958;2022-07-29T05:10:17;97339.88;;;20.09;65.09
61035;BME280;46916;40.564;-7.958;2022-07-29T05:12:18;97346.03;;;20.10;65.05
61035;BME280;46916;40.564;-7.958;2022-07-29T05:14:19;97345.00;;;20.11;65.20
61035;BME280;46916;40.564;-7.958;2022-07-29T05:16:19;97356.66;;;20.10;65.17
61035;BME280;46916;40.564;-7.958;2022-07-29T05:18:20;97363.16;;;20.07;65.06
61035;BME280;46916;40.564;-7.958;2022-07-29T05:20:21;97361.53;;;20.06;65.27
61035;BME280;46916;40.564;-7.958;2022-07-29T05:22:26;97357.84;;;20.07;65.22
61035;BME280;46916;40.564;-7.958;2022-07-29T05:24:27;97362.34;;;20.07;65.28
61035;BME280;46916;40.564;-7.958;2022-07-29T05:26:27;97365.00;;;20.07;65.12
61035;BME280;46916;40.564;-7.958;2022-07-29T05:28:28;97361.09;;;20.02;65.26
61035;BME280;46916;40.564;-7.958;2022-07-29T05:30:29;97368.00;;;19.97;65.45
61035;BME280;46916;40.564;-7.958;2022-07-29T05:32:29;97360.53;;;19.86;65.86
61035;BME280;46916;40.564;-7.958;2022-07-29T05:34:31;97354.75;;;19.82;65.99
61035;BME280;46916;40.564;-7.958;2022-07-29T05:36:31;97370.34;;;19.85;66.28
61035;BME280;46916;40.564;-7.958;2022-07-29T05:38:35;97367.47;;;19.87;66.10
61035;BME280;46916;40.564;-7.958;2022-07-29T05:40:36;97364.81;;;19.87;66.05
61035;BME280;46916;40.564;-7.958;2022-07-29T05:42:37;97367.31;;;19.88;66.00
61035;BME280;46916;40.564;-7.958;2022-07-29T05:44:38;97368.75;;;19.91;66.10
61035;BME280;46916;40.564;-7.958;2022-07-29T05:46:39;97370.59;;;19.90;66.02
61035;BME280;46916;40.564;-7.958;2022-07-29T05:48:40;97376.28;;;19.87;66.09
61035;BME280;46916;40.564;-7.958;2022-07-29T05:50:40;97374.97;;;19.76;66.31
61035;BME280;46916;40.564;-7.958;2022-07-29T05:52:41;97374.88;;;19.70;66.43
61035;BME280;46916;40.564;-7.958;2022-07-29T05:54:42;97377.16;;;19.73;66.60
61035;BME280;46916;40.564;-7.958;2022-07-29T05:56:42;97375.91;;;19.69;66.55
61035;BME280;46916;40.564;-7.958;2022-07-29T05:58:43;97383.63;;;19.64;66.77
61035;BME280;46916;40.564;-7.958;2022-07-29T06:00:44;97378.47;;;19.62;66.83
61035;BME280;46916;40.564;-7.958;2022-07-29T06:02:45;97381.28;;;19.61;66.78
61035;BME280;46916;40.564;-7.958;2022-07-29T06:04:45;97378.63;;;19.61;67.03
61035;BME280;46916;40.564;-7.958;2022-07-29T06:06:46;97384.44;;;19.64;66.80
61035;BME280;46916;40.564;-7.958;2022-07-29T06:08:47;97381.22;;;19.69;66.54
61035;BME280;46916;40.564;-7.958;2022-07-29T06:10:47;97388.16;;;19.70;66.70
61035;BME280;46916;40.564;-7.958;2022-07-29T06:12:48;97379.38;;;19.69;66.43
61035;BME280;46916;40.564;-7.958;2022-07-29T06:14:49;97384.03;;;19.67;66.52
61035;BME280;46916;40.564;-7.958;2022-07-29T06:16:49;97384.81;;;19.61;66.57
61035;BME280;46916;40.564;-7.958;2022-07-29T06:18:50;97391.09;;;19.60;66.85
61035;BME280;46916;40.564;-7.958;2022-07-29T06:20:55;97389.63;;;19.58;66.86
61035;BME280;46916;40.564;-7.958;2022-07-29T06:22:56;97396.41;;;19.60;66.60
61035;BME280;46916;40.564;-7.958;2022-07-29T06:24:57;97396.59;;;19.59;66.72
61035;BME280;46916;40.564;-7.958;2022-07-29T06:26:58;97396.25;;;19.62;66.56
61035;BME280;46916;40.564;-7.958;2022-07-29T06:28:58;97398.41;;;19.58;66.76
61035;BME280;46916;40.564;-7.958;2022-07-29T06:31:00;97401.66;;;19.53;66.99
61035;BME280;46916;40.564;-7.958;2022-07-29T06:33:00;97405.59;;;19.43;67.05
61035;BME280;46916;40.564;-7.958;2022-07-29T06:35:02;97409.22;;;19.35;67.55
61035;BME280;46916;40.564;-7.958;2022-07-29T06:37:09;97407.47;;;19.27;67.64
61035;BME280;46916;40.564;-7.958;2022-07-29T06:39:10;97404.16;;;19.25;67.86
61035;BME280;46916;40.564;-7.958;2022-07-29T06:41:10;97401.50;;;19.25;67.89
61035;BME280;46916;40.564;-7.958;2022-07-29T06:43:13;97401.78;;;19.30;67.67
61035;BME280;46916;40.564;-7.958;2022-07-29T06:45:14;97406.97;;;19.39;67.55
61035;BME280;46916;40.564;-7.958;2022-07-29T06:47:16;97406.63;;;19.42;67.44
61035;BME280;46916;40.564;-7.958;2022-07-29T06:49:17;97404.41;;;19.45;67.25
61035;BME280;46916;40.564;-7.958;2022-07-29T06:51:18;97406.13;;;19.53;66.89
61035;BME280;46916;40.564;-7.958;2022-07-29T06:53:19;97402.28;;;19.55;66.61
61035;BME280;46916;40.564;-7.958;2022-07-29T06:55:19;97409.97;;;19.50;66.93
61035;BME280;46916;40.564;-7.958;2022-07-29T06:57:21;97412.84;;;19.49;66.96
61035;BME280;46916;40.564;-7.958;2022-07-29T06:59:21;97407.53;;;19.49;66.76
61035;BME280;46916;40.564;-7.958;2022-07-29T07:01:22;97410.44;;;19.54;66.77
61035;BME280;46916;40.564;-7.958;2022-07-29T07:03:23;97412.91;;;19.55;66.73
61035;BME280;46916;40.564;-7.958;2022-07-29T07:05:24;97413.19;;;19.61;66.30
61035;BME280;46916;40.564;-7.958;2022-07-29T07:07:25;97416.19;;;19.58;66.72
61035;BME280;46916;40.564;-7.958;2022-07-29T07:09:26;97416.19;;;19.58;66.94
61035;BME280;46916;40.564;-7.958;2022-07-29T07:11:27;97418.22;;;19.55;66.64
61035;BME280;46916;40.564;-7.958;2022-07-29T07:13:27;97417.38;;;19.55;66.69
61035;BME280;46916;40.564;-7.958;2022-07-29T07:15:31;97419.63;;;19.51;66.98
61035;BME280;46916;40.564;-7.958;2022-07-29T07:17:32;97416.66;;;19.46;67.06
61035;BME280;46916;40.564;-7.958;2022-07-29T07:19:33;97411.31;;;19.40;67.26
61035;BME280;46916;40.564;-7.958;2022-07-29T07:21:33;97412.75;;;19.42;67.13
61035;BME280;46916;40.564;-7.958;2022-07-29T07:23:34;97416.09;;;19.51;66.95
61035;BME280;46916;40.564;-7.958;2022-07-29T07:25:35;97409.53;;;19.62;66.44
61035;BME280;46916;40.564;-7.958;2022-07-29T07:27:36;97412.06;;;19.70;66.33
61035;BME280;46916;40.564;-7.958;2022-07-29T07:29:37;97414.72;;;19.70;66.14
61035;BME280;46916;40.564;-7.958;2022-07-29T07:31:41;97412.06;;;19.70;66.44
61035;BME280;46916;40.564;-7.958;2022-07-29T07:33:42;97403.78;;;19.79;66.45
61035;BME280;46916;40.564;-7.958;2022-07-29T07:35:42;97410.56;;;20.03;65.63
61035;BME280;46916;40.564;-7.958;2022-07-29T07:37:44;97416.91;;;20.02;65.44
61035;BME280;46916;40.564;-7.958;2022-07-29T07:39:45;97414.69;;;20.06;65.58
61035;BME280;46916;40.564;-7.958;2022-07-29T07:41:45;97414.25;;;20.24;65.23
61035;BME280;46916;40.564;-7.958;2022-07-29T07:43:46;97421.19;;;20.46;64.48
61035;BME280;46916;40.564;-7.958;2022-07-29T07:45:47;97421.75;;;20.63;63.80
61035;BME280;46916;40.564;-7.958;2022-07-29T07:47:47;97416.09;;;20.73;63.25
61035;BME280;46916;40.564;-7.958;2022-07-29T07:49:49;97419.69;;;20.87;62.87
61035;BME280;46916;40.564;-7.958;2022-07-29T07:51:50;97423.38;;;20.92;62.91
61035;BME280;46916;40.564;-7.958;2022-07-29T07:53:50;97429.81;;;21.05;62.08
61035;BME280;46916;40.564;-7.958;2022-07-29T07:55:51;97426.88;;;20.93;62.26
61035;BME280;46916;40.564;-7.958;2022-07-29T07:57:53;97416.59;;;20.90;62.78
61035;BME280;46916;40.564;-7.958;2022-07-29T07:59:54;97424.03;;;20.94;62.26
61035;BME280;46916;40.564;-7.958;2022-07-29T08:01:54;97424.03;;;20.94;62.32
61035;BME280;46916;40.564;-7.958;2022-07-29T08:03:55;97428.78;;;21.06;62.29
61035;BME280;46916;40.564;-7.958;2022-07-29T08:05:56;97427.63;;;21.15;61.62
61035;BME280;46916;40.564;-7.958;2022-07-29T08:07:57;97421.50;;;21.21;61.77
61035;BME280;46916;40.564;-7.958;2022-07-29T08:09:58;97419.25;;;21.24;61.46
61035;BME280;46916;40.564;-7.958;2022-07-29T08:11:59;97430.94;;;21.23;61.48
61035;BME280;46916;40.564;-7.958;2022-07-29T08:13:59;97431.78;;;21.31;61.34
61035;BME280;46916;40.564;-7.958;2022-07-29T08:16:01;97425.16;;;21.48;60.99
61035;BME280;46916;40.564;-7.958;2022-07-29T08:18:12;97427.22;;;21.59;60.69
61035;BME280;46916;40.564;-7.958;2022-07-29T08:20:13;97418.81;;;21.56;60.67
61035;BME280;46916;40.564;-7.958;2022-07-29T08:22:14;97420.81;;;21.40;61.25
61035;BME280;46916;40.564;-7.958;2022-07-29T08:24:15;97428.03;;;21.18;61.96
61035;BME280;46916;40.564;-7.958;2022-07-29T08:26:34;97431.06;;;21.09;62.04
61035;BME280;46916;40.564;-7.958;2022-07-29T08:28:35;97424.84;;;20.95;62.67
61035;BME280;46916;40.564;-7.958;2022-07-29T08:30:35;97428.31;;;20.95;62.65
61035;BME280;46916;40.564;-7.958;2022-07-29T08:32:36;97427.31;;;20.96;62.73
61035;BME280;46916;40.564;-7.958;2022-07-29T08:34:37;97421.38;;;21.01;62.54
61035;BME280;46916;40.564;-7.958;2022-07-29T08:36:37;97418.38;;;21.11;62.38
61035;BME280;46916;40.564;-7.958;2022-07-29T08:38:38;97417.41;;;21.25;61.99
61035;BME280;46916;40.564;-7.958;2022-07-29T08:40:39;97415.06;;;21.37;61.81
61035;BME280;46916;40.564;-7.958;2022-07-29T08:42:40;97413.44;;;21.42;61.45
61035;BME280;46916;40.564;-7.958;2022-07-29T08:44:41;97412.19;;;21.38;61.70
61035;BME280;46916;40.564;-7.958;2022-07-29T08:46:42;97422.00;;;21.38;61.66
61035;BME280;46916;40.564;-7.958;2022-07-29T08:48:43;97425.47;;;21.32;61.93
61035;BME280;46916;40.564;-7.958;2022-07-29T08:50:44;97410.63;;;21.22;62.43
61035;BME280;46916;40.564;-7.958;2022-07-29T08:52:46;97417.63;;;21.30;62.05
61035;BME280;46916;40.564;-7.958;2022-07-29T08:54:47;97415.25;;;21.35;61.92
61035;BME280;46916;40.564;-7.958;2022-07-29T08:56:51;97416.00;;;21.29;62.35
61035;BME280;46916;40.564;-7.958;2022-07-29T08:58:52;97416.50;;;21.39;62.11
61035;BME280;46916;40.564;-7.958;2022-07-29T09:00:55;97412.25;;;21.51;61.90
61035;BME280;46916;40.564;-7.958;2022-07-29T09:02:57;97411.63;;;21.49;61.83
61035;BME280;46916;40.564;-7.958;2022-07-29T09:05:00;97418.59;;;21.50;61.91
61035;BME280;46916;40.564;-7.958;2022-07-29T09:07:04;97411.66;;;21.56;61.64
61035;BME280;46916;40.564;-7.958;2022-07-29T09:09:07;97408.81;;;21.64;61.72
61035;BME280;46916;40.564;-7.958;2022-07-29T09:11:08;97413.75;;;21.74;61.39
61035;BME280;46916;40.564;-7.958;2022-07-29T09:13:09;97413.38;;;21.90;60.88
61035;BME280;46916;40.564;-7.958;2022-07-29T09:15:10;97411.53;;;22.04;60.75
61035;BME280;46916;40.564;-7.958;2022-07-29T09:17:10;97404.84;;;22.15;60.29
61035;BME280;46916;40.564;-7.958;2022-07-29T09:19:22;97408.13;;;22.23;60.13
61035;BME280;46916;40.564;-7.958;2022-07-29T09:21:23;97404.66;;;22.30;59.66
61035;BME280;46916;40.564;-7.958;2022-07-29T09:24:03;97411.41;;;22.32;59.76
61035;BME280;46916;40.564;-7.958;2022-07-29T09:26:05;97409.38;;;22.34;59.41
61035;BME280;46916;40.564;-7.958;2022-07-29T09:28:13;97403.63;;;22.37;59.35
61035;BME280;46916;40.564;-7.958;2022-07-29T09:30:14;97401.56;;;22.39;59.18
61035;BME280;46916;40.564;-7.958;2022-07-29T09:32:15;97406.50;;;22.42;58.98
61035;BME280;46916;40.564;-7.958;2022-07-29T09:34:21;97400.75;;;22.45;58.99
61035;BME280;46916;40.564;-7.958;2022-07-29T09:36:21;97403.19;;;22.40;59.05
61035;BME280;46916;40.564;-7.958;2022-07-29T09:38:22;97406.50;;;22.42;58.69
61035;BME280;46916;40.564;-7.958;2022-07-29T09:40:27;97399.91;;;22.52;58.68
61035;BME280;46916;40.564;-7.958;2022-07-29T09:42:29;97405.88;;;22.60;58.59
61035;BME280;46916;40.564;-7.958;2022-07-29T09:44:49;97403.59;;;22.70;58.36
61035;BME280;46916;40.564;-7.958;2022-07-29T09:47:00;97403.78;;;22.75;58.12
61035;BME280;46916;40.564;-7.958;2022-07-29T09:49:12;97399.47;;;22.81;57.84
61035;BME280;46916;40.564;-7.958;2022-07-29T09:51:20;97404.81;;;22.88;57.83
61035;BME280;46916;40.564;-7.958;2022-07-29T09:53:35;97408.09;;;22.96;57.78
61035;BME280;46916;40.564;-7.958;2022-07-29T09:55:50;97398.41;;;23.02;57.80
61035;BME280;46916;40.564;-7.958;2022-07-29T09:57:51;97395.97;;;23.07;57.11
61035;BME280;46916;40.564;-7.958;2022-07-29T10:00:00;97388.94;;;23.13;56.89
61035;BME280;46916;40.564;-7.958;2022-07-29T10:02:01;97387.50;;;23.10;56.69
61035;BME280;46916;40.564;-7.958;2022-07-29T10:04:02;97385.47;;;23.12;56.75
61035;BME280;46916;40.564;-7.958;2022-07-29T10:06:10;97389.13;;;23.18;56.61
61035;BME280;46916;40.564;-7.958;2022-07-29T10:08:12;97394.47;;;23.24;56.54
61035;BME280;46916;40.564;-7.958;2022-07-29T10:10:26;97388.25;;;23.31;56.28
61035;BME280;46916;40.564;-7.958;2022-07-29T10:12:27;97381.28;;;23.36;56.02
61035;BME280;46916;40.564;-7.958;2022-07-29T10:14:29;97383.28;;;23.47;56.15
61035;BME280;46916;40.564;-7.958;2022-07-29T10:16:31;97386.13;;;23.53;55.97
61035;BME280;46916;40.564;-7.958;2022-07-29T10:18:34;97386.06;;;23.59;55.93
61035;BME280;46916;40.564;-7.958;2022-07-29T10:20:37;97384.84;;;23.62;55.32
61035;BME280;46916;40.564;-7.958;2022-07-29T10:22:39;97379.06;;;23.65;55.52
61035;BME280;46916;40.564;-7.958;2022-07-29T10:24:40;97379.91;;;23.72;55.26
61035;BME280;46916;40.564;-7.958;2022-07-29T10:26:41;97389.28;;;23.81;55.03
61035;BME280;46916;40.564;-7.958;2022-07-29T10:28:42;97387.59;;;23.87;54.12
61035;BME280;46916;40.564;-7.958;2022-07-29T10:30:44;97386.97;;;23.91;54.24
61035;BME280;46916;40.564;-7.958;2022-07-29T10:42:40;97381.16;;;24.26;52.87
61035;BME280;46916;40.564;-7.958;2022-07-29T10:44:42;97379.69;;;24.30;52.33
61035;BME280;46916;40.564;-7.958;2022-07-29T10:46:43;97387.66;;;24.37;52.36
61035;BME280;46916;40.564;-7.958;2022-07-29T10:49:23;97371.59;;;24.43;52.26
61035;BME280;46916;40.564;-7.958;2022-07-29T10:51:51;97369.66;;;24.51;51.94
61035;BME280;46916;40.564;-7.958;2022-07-29T10:53:52;97370.63;;;24.56;51.75
61035;BME280;46916;40.564;-7.958;2022-07-29T10:55:53;97367.91;;;24.63;51.62
61035;BME280;46916;40.564;-7.958;2022-07-29T10:58:31;97375.88;;;24.69;51.28
61035;BME280;46916;40.564;-7.958;2022-07-29T11:00:32;97370.88;;;24.73;50.77
61035;BME280;46916;40.564;-7.958;2022-07-29T11:09:16;97363.78;;;25.22;49.07
61035;BME280;46916;40.564;-7.958;2022-07-29T11:15:57;97356.47;;;25.48;49.21
61035;BME280;46916;40.564;-7.958;2022-07-29T11:20:41;97356.19;;;25.67;48.54
61035;BME280;46916;40.564;-7.958;2022-07-29T11:22:43;97353.81;;;25.78;48.44